createdAt,value
2023-05-20T00:01:33.068Z,12.64
2023-05-20T00:03:59.826Z,12.66
2023-05-20T00:06:26.444Z,12.82
2023-05-20T00:08:52.885Z,12.91
2023-05-20T00:11:19.371Z,12.78
2023-05-20T00:13:45.826Z,12.58
2023-05-20T00:16:12.343Z,12.62
2023-05-20T00:18:38.862Z,12.48
2023-05-20T00:21:05.348Z,12.40
2023-05-20T00:23:31.793Z,12.52
2023-05-20T00:26:00.594Z,12.44
2023-05-20T00:28:27.381Z,12.51
2023-05-20T00:30:54.700Z,12.35
2023-05-20T00:33:21.419Z,12.51
2023-05-20T00:35:48.003Z,12.57
2023-05-20T00:38:14.544Z,12.53
2023-05-20T00:40:41.051Z,12.58
2023-05-20T00:43:08.049Z,12.42
2023-05-20T00:45:34.847Z,12.41
2023-05-20T00:48:04.064Z,12.04
2023-05-20T00:50:31.972Z,12.23
2023-05-20T00:52:58.842Z,12.15
2023-05-20T00:55:25.763Z,11.77
2023-05-20T00:57:53.612Z,11.78
2023-05-20T01:00:20.093Z,11.64
2023-05-20T01:02:46.717Z,11.69
2023-05-20T01:05:13.293Z,11.72
2023-05-20T01:07:40.001Z,11.70
2023-05-20T01:10:07.251Z,11.65
2023-05-20T01:12:46.325Z,11.67
2023-05-20T01:15:14.849Z,11.68
2023-05-20T01:17:46.615Z,11.57
2023-05-20T01:20:14.597Z,11.51
2023-05-20T01:22:53.547Z,11.53
2023-05-20T01:25:20.087Z,11.62
2023-05-20T01:27:48.975Z,11.58
2023-05-20T01:30:16.174Z,11.49
2023-05-20T01:32:54.093Z,11.45
2023-05-20T01:35:22.446Z,11.52
2023-05-20T01:37:52.186Z,11.56
2023-05-20T01:40:19.992Z,11.47
2023-05-20T01:42:52.748Z,11.39
2023-05-20T01:45:19.848Z,11.42
2023-05-20T01:47:46.803Z,11.16
2023-05-20T01:50:13.428Z,11.31
2023-05-20T01:52:39.897Z,11.17
2023-05-20T01:55:06.626Z,11.21
2023-05-20T01:57:33.079Z,10.92
2023-05-20T01:59:59.605Z,10.93
2023-05-20T02:02:26.229Z,11.00
2023-05-20T02:04:54.134Z,10.97
2023-05-20T02:07:20.653Z,10.90
2023-05-20T02:09:47.645Z,10.91
2023-05-20T02:12:17.384Z,11.07
2023-05-20T02:14:45.220Z,10.97
2023-05-20T02:17:11.999Z,11.00
2023-05-20T02:19:38.461Z,10.93
2023-05-20T02:22:05.093Z,10.92
2023-05-20T02:24:31.888Z,10.81
2023-05-20T02:26:59.013Z,10.69
2023-05-20T02:29:26.545Z,10.87
2023-05-20T02:31:53.012Z,10.82
2023-05-20T02:34:21.364Z,10.81
2023-05-20T02:36:47.976Z,10.91
2023-05-20T02:39:14.574Z,10.90
2023-05-20T02:41:41.093Z,10.89
2023-05-20T02:44:07.566Z,10.81
2023-05-20T02:46:34.717Z,10.65
2023-05-20T02:49:01.306Z,10.67
2023-05-20T02:51:27.817Z,10.62
2023-05-20T02:53:54.303Z,10.84
2023-05-20T02:56:21.465Z,10.77
2023-05-20T02:58:48.456Z,10.82
2023-05-20T03:01:14.961Z,10.88
2023-05-20T03:03:42.887Z,10.90
2023-05-20T03:06:09.362Z,10.95
2023-05-20T03:08:36.320Z,10.87
2023-05-20T03:11:04.783Z,10.90
2023-05-20T03:13:31.928Z,10.95
2023-05-20T03:15:58.665Z,10.86
2023-05-20T03:18:25.387Z,11.04
2023-05-20T03:20:51.910Z,10.92
2023-05-20T03:23:18.387Z,10.85
2023-05-20T03:25:46.213Z,10.88
2023-05-20T03:28:12.854Z,10.95
2023-05-20T03:30:39.398Z,10.99
2023-05-20T03:33:05.980Z,11.04
2023-05-20T03:35:32.769Z,11.12
2023-05-20T03:38:01.728Z,11.11
2023-05-20T03:40:28.781Z,11.13
2023-05-20T03:42:55.624Z,11.26
2023-05-20T03:45:22.192Z,11.27
2023-05-20T03:47:57.826Z,11.31
2023-05-20T03:50:24.388Z,11.41
2023-05-20T03:52:50.884Z,11.38
2023-05-20T03:55:20.533Z,11.44
2023-05-20T03:57:47.352Z,11.46
2023-05-20T04:00:14.645Z,11.45
2023-05-20T04:02:43.667Z,11.40
2023-05-20T04:05:13.917Z,11.49
2023-05-20T04:07:41.300Z,11.46
2023-05-20T04:10:09.110Z,11.45
2023-05-20T04:12:38.203Z,11.49
2023-05-20T04:15:05.891Z,11.42
2023-05-20T04:17:40.567Z,11.49
2023-05-20T04:20:08.159Z,11.51
2023-05-20T04:22:37.036Z,11.63
2023-05-20T04:25:05.222Z,11.64
2023-05-20T04:27:33.684Z,11.52
2023-05-20T04:30:02.322Z,11.58
2023-05-20T04:32:34.451Z,11.58
2023-05-20T04:35:02.164Z,11.60
2023-05-20T04:37:32.070Z,11.72
2023-05-20T04:39:58.623Z,11.77
2023-05-20T04:42:25.815Z,11.82
2023-05-20T04:44:52.653Z,11.79
2023-05-20T04:47:19.142Z,11.72
2023-05-20T04:49:45.741Z,11.83
2023-05-20T04:52:12.377Z,11.77
2023-05-20T04:54:40.271Z,11.93
2023-05-20T04:57:07.064Z,11.90
2023-05-20T04:59:33.553Z,11.85
2023-05-20T05:02:00.221Z,11.93
2023-05-20T05:04:26.898Z,12.03
2023-05-20T05:06:53.390Z,12.08
2023-05-20T05:09:19.861Z,11.98
2023-05-20T05:11:46.672Z,11.94
2023-05-20T05:14:13.210Z,11.99
2023-05-20T05:16:39.897Z,11.83
2023-05-20T05:19:07.283Z,11.85
2023-05-20T05:21:36.757Z,11.82
2023-05-20T05:24:03.894Z,11.85
2023-05-20T05:26:30.451Z,11.76
2023-05-20T05:28:56.973Z,11.82
2023-05-20T05:31:23.513Z,11.86
2023-05-20T05:33:50.223Z,11.87
2023-05-20T05:36:17.015Z,11.89
2023-05-20T05:38:44.409Z,11.99
2023-05-20T05:41:10.885Z,12.01
2023-05-20T05:43:37.454Z,12.02
2023-05-20T05:46:05.217Z,12.11
2023-05-20T05:48:32.271Z,12.18
2023-05-20T05:50:59.263Z,12.18
2023-05-20T05:53:26.280Z,12.22
2023-05-20T05:55:52.777Z,12.19
2023-05-20T05:58:19.298Z,12.22
2023-05-20T06:00:45.820Z,12.22
2023-05-20T06:03:12.513Z,12.32
2023-05-20T06:05:39.874Z,12.32
2023-05-20T06:08:06.417Z,12.31
2023-05-20T06:10:34.861Z,12.35
2023-05-20T06:13:01.342Z,12.37
2023-05-20T06:15:28.064Z,12.44
2023-05-20T06:17:55.428Z,12.46
2023-05-20T06:20:22.118Z,12.50
2023-05-20T06:22:48.778Z,12.52
2023-05-20T06:25:15.332Z,12.56
2023-05-20T06:27:42.311Z,12.57
2023-05-20T06:30:11.954Z,12.58
2023-05-20T06:32:38.417Z,12.61
2023-05-20T06:35:05.689Z,12.71
2023-05-20T06:37:32.201Z,12.64
2023-05-20T06:39:58.663Z,12.78
2023-05-20T06:42:25.118Z,12.87
2023-05-20T06:45:03.109Z,12.84
2023-05-20T06:47:36.165Z,12.85
2023-05-20T06:50:02.725Z,12.89
2023-05-20T06:52:30.065Z,12.85
2023-05-20T06:54:56.521Z,12.89
2023-05-20T06:57:23.875Z,12.89
2023-05-20T06:59:50.350Z,12.95
2023-05-20T07:02:18.099Z,13.04
2023-05-20T07:04:44.566Z,13.09
2023-05-20T07:07:11.050Z,13.05
2023-05-20T07:09:37.778Z,13.07
2023-05-20T07:12:06.609Z,13.00
2023-05-20T07:14:33.085Z,13.00
2023-05-20T07:17:00.474Z,13.17
2023-05-20T07:19:27.066Z,13.15
2023-05-20T07:21:53.891Z,13.20
2023-05-20T07:24:36.026Z,13.24
2023-05-20T07:27:04.325Z,13.29
2023-05-20T07:29:31.321Z,13.35
2023-05-20T07:31:58.113Z,13.35
2023-05-20T07:34:24.883Z,13.54
2023-05-20T07:36:51.606Z,13.53
2023-05-20T07:39:18.122Z,13.49
2023-05-20T07:41:44.577Z,13.63
2023-05-20T07:44:13.085Z,13.67
2023-05-20T07:46:42.950Z,13.62
2023-05-20T07:49:11.103Z,13.74
2023-05-20T07:51:39.087Z,13.66
2023-05-20T07:54:05.925Z,13.79
2023-05-20T07:56:33.263Z,13.97
2023-05-20T07:59:00.541Z,14.02
2023-05-20T08:01:30.254Z,14.06
2023-05-20T08:03:57.130Z,14.08
2023-05-20T08:06:26.230Z,13.98
2023-05-20T08:08:54.266Z,14.07
2023-05-20T08:11:25.512Z,14.16
2023-05-20T08:13:52.145Z,14.35
2023-05-20T08:16:18.863Z,14.31
2023-05-20T08:18:45.605Z,14.46
2023-05-20T08:21:13.940Z,14.62
2023-05-20T08:23:40.720Z,14.60
2023-05-20T08:26:07.693Z,14.53
2023-05-20T08:28:37.918Z,14.69
2023-05-20T08:31:04.932Z,14.76
2023-05-20T08:33:32.556Z,14.85
2023-05-20T08:35:59.009Z,14.89
2023-05-20T08:38:25.483Z,14.94
2023-05-20T08:40:56.399Z,15.08
2023-05-20T08:43:24.571Z,15.13
2023-05-20T08:45:53.732Z,15.34
2023-05-20T08:48:23.253Z,15.31
2023-05-20T08:50:55.718Z,15.44
2023-05-20T08:53:22.606Z,15.51
2023-05-20T08:55:55.025Z,15.45
2023-05-20T08:58:23.289Z,15.24
2023-05-20T09:00:51.125Z,15.34
2023-05-20T09:03:17.911Z,15.53
2023-05-20T09:05:44.402Z,15.46
2023-05-20T09:08:11.836Z,15.49
2023-05-20T09:10:39.901Z,15.47
2023-05-20T09:13:07.345Z,15.64
2023-05-20T09:15:35.641Z,15.67
2023-05-20T09:18:04.206Z,15.61
2023-05-20T09:20:34.014Z,15.80
2023-05-20T09:23:01.953Z,15.89
2023-05-20T09:25:29.394Z,15.89
2023-05-20T09:27:56.171Z,15.74
2023-05-20T09:30:23.604Z,15.58
2023-05-20T09:32:54.345Z,15.47
2023-05-20T09:35:24.999Z,15.57
2023-05-20T09:37:56.028Z,15.78
2023-05-20T09:40:28.951Z,15.50
2023-05-20T09:43:07.272Z,15.66
2023-05-20T09:45:34.524Z,15.71
2023-05-20T09:48:02.112Z,15.65
2023-05-20T09:50:30.093Z,15.85
2023-05-20T09:52:56.877Z,15.83
2023-05-20T09:55:25.005Z,15.87
2023-05-20T09:57:53.170Z,15.88
2023-05-20T10:00:19.769Z,16.00
2023-05-20T10:02:49.034Z,15.95
2023-05-20T10:05:20.046Z,16.05
2023-05-20T10:07:58.592Z,16.02
2023-05-20T10:10:40.606Z,16.19
2023-05-20T10:13:18.102Z,16.44
2023-05-20T10:16:17.167Z,16.75
2023-05-20T10:19:11.919Z,16.59
2023-05-20T10:21:38.523Z,16.65
2023-05-20T10:24:09.229Z,16.56
2023-05-20T10:26:37.284Z,16.68
2023-05-20T10:29:18.157Z,16.85
2023-05-20T10:31:48.484Z,16.91
2023-05-20T10:34:17.424Z,16.89
2023-05-20T10:36:58.253Z,16.88
2023-05-20T10:39:34.508Z,16.75
2023-05-20T10:42:11.239Z,16.75
2023-05-20T10:44:41.614Z,17.01
2023-05-20T10:47:24.847Z,17.23
2023-05-20T10:49:52.655Z,17.31
2023-05-20T10:52:20.155Z,16.94
2023-05-20T10:54:57.343Z,16.99
2023-05-20T10:57:26.351Z,16.86
2023-05-20T10:59:53.188Z,16.66
2023-05-20T11:02:26.588Z,16.78
2023-05-20T11:04:53.803Z,16.76
2023-05-20T11:07:31.494Z,16.87
2023-05-20T11:09:58.819Z,16.89
2023-05-20T11:12:26.734Z,17.09
2023-05-20T11:14:53.673Z,17.34
2023-05-20T11:17:20.433Z,17.25
2023-05-20T11:19:47.773Z,17.34
2023-05-20T11:22:14.346Z,17.14
2023-05-20T11:24:40.937Z,17.14
2023-05-20T11:27:07.671Z,17.68
2023-05-20T11:29:34.164Z,17.80
2023-05-20T11:32:01.309Z,17.87
2023-05-20T11:34:34.771Z,17.80
2023-05-20T11:37:01.320Z,17.96
2023-05-20T11:39:30.521Z,18.05
2023-05-20T11:41:58.039Z,17.84
2023-05-20T11:44:25.035Z,17.94
2023-05-20T11:46:51.514Z,18.12
2023-05-20T11:49:17.969Z,18.10
2023-05-20T11:51:44.897Z,18.13
2023-05-20T11:54:11.706Z,18.51
2023-05-20T11:56:39.027Z,18.89
2023-05-20T11:59:06.548Z,18.70
2023-05-20T12:01:37.684Z,18.47
2023-05-20T12:04:08.319Z,18.73
2023-05-20T12:06:37.135Z,18.86
2023-05-20T12:09:08.532Z,18.59
2023-05-20T12:11:41.074Z,18.96
2023-05-20T12:14:08.688Z,18.90
2023-05-20T12:16:35.933Z,18.91
2023-05-20T12:19:02.906Z,18.86
2023-05-20T12:21:31.214Z,18.81
2023-05-20T12:23:59.692Z,19.02
2023-05-20T12:26:29.975Z,19.34
2023-05-20T12:28:56.715Z,19.32
2023-05-20T12:31:23.341Z,19.08
2023-05-20T12:33:49.886Z,19.13
2023-05-20T12:36:16.384Z,19.20
2023-05-20T12:38:42.906Z,19.31
2023-05-20T12:41:09.362Z,19.58
2023-05-20T12:43:37.499Z,19.50
2023-05-20T12:46:04.296Z,19.69
2023-05-20T12:48:30.873Z,19.72
2023-05-20T12:50:57.394Z,19.77
2023-05-20T12:53:23.861Z,19.89
2023-05-20T12:55:50.324Z,19.94
2023-05-20T12:58:16.808Z,19.90
2023-05-20T13:00:43.309Z,20.11
2023-05-20T13:03:09.982Z,19.86
2023-05-20T13:05:36.556Z,19.25
2023-05-20T13:08:03.211Z,19.23
2023-05-20T13:10:29.663Z,19.28
2023-05-20T13:12:56.723Z,19.34
2023-05-20T13:15:23.191Z,19.53
2023-05-20T13:17:49.735Z,19.51
2023-05-20T13:20:19.068Z,19.80
2023-05-20T13:22:46.405Z,19.82
2023-05-20T13:25:12.922Z,19.78
2023-05-20T13:27:39.463Z,20.11
2023-05-20T13:30:06.889Z,19.88
2023-05-20T13:32:33.456Z,19.85
2023-05-20T13:35:00.022Z,19.82
2023-05-20T13:37:26.536Z,19.89
2023-05-20T13:39:53.025Z,20.07
2023-05-20T13:42:19.480Z,20.15
2023-05-20T13:44:46.586Z,20.04
2023-05-20T13:47:13.061Z,20.33
2023-05-20T13:49:39.546Z,20.39
2023-05-20T13:52:06.186Z,20.10
2023-05-20T13:54:32.667Z,20.26
2023-05-20T13:56:59.123Z,20.20
2023-05-20T13:59:25.714Z,20.26
2023-05-20T14:01:53.583Z,20.18
2023-05-20T14:04:20.134Z,20.24
2023-05-20T14:06:46.625Z,20.31
2023-05-20T14:09:13.068Z,20.65
2023-05-20T14:11:39.532Z,20.43
2023-05-20T14:14:06.344Z,20.44
2023-05-20T14:16:33.140Z,20.29
2023-05-20T14:18:59.759Z,20.23
2023-05-20T14:21:26.267Z,20.21
2023-05-20T14:23:52.695Z,20.15
2023-05-20T14:26:19.161Z,20.11
2023-05-20T14:28:45.590Z,20.02
2023-05-20T14:31:12.077Z,20.02
2023-05-20T14:33:38.547Z,20.02
2023-05-20T14:36:05.148Z,19.93
2023-05-20T14:38:31.603Z,20.08
2023-05-20T14:40:58.077Z,20.33
2023-05-20T14:43:24.538Z,20.34
2023-05-20T14:45:51.965Z,20.34
2023-05-20T14:48:18.474Z,20.35
2023-05-20T14:50:44.967Z,20.23
2023-05-20T14:53:11.428Z,20.27
2023-05-20T14:55:37.914Z,20.31
2023-05-20T14:58:04.409Z,20.38
2023-05-20T15:00:32.731Z,20.56
2023-05-20T15:02:59.398Z,20.46
2023-05-20T15:05:25.883Z,20.61
2023-05-20T15:07:52.451Z,20.63
2023-05-20T15:10:18.979Z,20.68
2023-05-20T15:12:45.555Z,20.35
2023-05-20T15:15:12.100Z,20.38
2023-05-20T15:17:38.770Z,20.34
2023-05-20T15:20:05.877Z,20.34
2023-05-20T15:22:32.385Z,20.35
2023-05-20T15:24:58.894Z,20.44
2023-05-20T15:27:25.400Z,20.62
2023-05-20T15:29:51.880Z,20.53
2023-05-20T15:32:19.866Z,20.60
2023-05-20T15:34:46.440Z,20.46
2023-05-20T15:37:12.992Z,20.62
2023-05-20T15:39:39.517Z,20.65
2023-05-20T15:42:06.538Z,20.76
2023-05-20T15:44:33.512Z,20.53
2023-05-20T15:46:59.981Z,20.61
2023-05-20T15:49:26.444Z,20.63
2023-05-20T15:52:03.100Z,20.56
2023-05-20T15:54:31.053Z,20.46
2023-05-20T15:56:58.079Z,20.41
2023-05-20T15:59:24.675Z,20.40
2023-05-20T16:01:51.320Z,20.45
2023-05-20T16:04:18.014Z,20.44
2023-05-20T16:06:44.590Z,20.47
2023-05-20T16:09:11.260Z,20.51
2023-05-20T16:14:04.095Z,20.39
2023-05-20T16:16:30.627Z,20.34
2023-05-20T16:18:58.835Z,20.36
2023-05-20T16:21:26.061Z,20.14
2023-05-20T16:23:55.142Z,20.10
2023-05-20T16:26:22.718Z,20.04
2023-05-20T16:28:49.182Z,20.05
2023-05-20T16:31:15.674Z,19.97
2023-05-20T16:33:42.235Z,20.15
2023-05-20T16:36:08.676Z,20.16
2023-05-20T16:38:35.166Z,20.13
2023-05-20T16:41:01.874Z,20.22
2023-05-20T16:43:28.400Z,20.18
2023-05-20T16:45:54.936Z,20.12
2023-05-20T16:48:21.636Z,20.17
2023-05-20T16:50:48.093Z,20.18
2023-05-20T16:53:16.313Z,20.05
2023-05-20T16:55:43.050Z,20.06
2023-05-20T16:58:09.540Z,20.13
2023-05-20T17:00:36.179Z,20.12
2023-05-20T17:03:02.807Z,20.14
2023-05-20T17:05:29.309Z,20.06
2023-05-20T17:07:59.754Z,20.02
2023-05-20T17:10:27.776Z,20.09
2023-05-20T17:12:54.242Z,19.99
2023-05-20T17:15:20.728Z,19.99
2023-05-20T17:17:47.299Z,19.93
2023-05-20T17:20:13.813Z,19.93
2023-05-20T17:22:40.460Z,19.86
2023-05-20T17:25:07.204Z,19.94
2023-05-20T17:27:33.666Z,20.01
2023-05-20T17:30:00.232Z,20.02
2023-05-20T17:32:26.758Z,19.91
2023-05-20T17:34:53.219Z,19.98
2023-05-20T17:37:20.950Z,19.88
2023-05-20T17:39:47.413Z,19.87
2023-05-20T17:42:13.853Z,19.81
2023-05-20T17:44:40.626Z,19.75
2023-05-20T17:47:07.096Z,19.79
2023-05-20T17:49:33.565Z,19.76
2023-05-20T17:52:00.027Z,19.83
2023-05-20T17:54:26.485Z,19.85
2023-05-20T17:56:52.941Z,19.82
2023-05-20T17:59:19.413Z,19.82
2023-05-20T18:01:46.634Z,19.82
2023-05-20T18:04:13.168Z,19.82
2023-05-20T18:06:39.844Z,19.78
2023-05-20T18:09:06.290Z,19.79
2023-05-20T18:11:33.718Z,19.83
2023-05-20T18:14:00.620Z,19.74
2023-05-20T18:16:28.427Z,19.68
2023-05-20T18:18:55.818Z,19.68
2023-05-20T18:21:23.668Z,19.56
2023-05-20T18:23:50.410Z,19.57
2023-05-20T18:26:17.106Z,19.56
2023-05-20T18:28:43.579Z,19.56
2023-05-20T18:31:10.076Z,19.58
2023-05-20T18:33:37.057Z,19.57
2023-05-20T18:36:05.694Z,19.50
2023-05-20T18:38:32.480Z,19.53
2023-05-20T18:40:59.520Z,19.48
2023-05-20T18:43:26.565Z,19.50
2023-05-20T18:45:53.267Z,19.47
2023-05-20T18:48:26.692Z,19.48
2023-05-20T18:50:54.812Z,19.46
2023-05-20T18:53:21.574Z,19.53
2023-05-20T18:55:48.379Z,19.50
2023-05-20T18:58:15.166Z,19.53
2023-05-20T19:00:41.820Z,19.40
2023-05-20T19:03:08.418Z,19.35
2023-05-20T19:05:35.180Z,19.38
2023-05-20T19:08:02.716Z,19.36
2023-05-20T19:10:29.528Z,19.32
2023-05-20T19:12:56.589Z,19.19
2023-05-20T19:15:23.064Z,19.14
2023-05-20T19:17:49.565Z,19.04
2023-05-20T19:20:16.114Z,19.13
2023-05-20T19:22:42.594Z,19.12
2023-05-20T19:25:09.412Z,19.01
2023-05-20T19:27:36.170Z,19.05
2023-05-20T19:30:02.741Z,19.06
2023-05-20T19:32:29.516Z,19.09
2023-05-20T19:34:56.370Z,19.06
2023-05-20T19:37:24.354Z,18.96
2023-05-20T19:39:51.205Z,18.90
2023-05-20T19:42:20.925Z,18.83
2023-05-20T19:44:47.814Z,18.66
2023-05-20T19:47:14.667Z,18.68
2023-05-20T19:49:41.157Z,18.74
2023-05-20T19:52:07.721Z,18.74
2023-05-20T19:54:34.377Z,18.77
2023-05-20T19:57:00.844Z,18.76
2023-05-20T19:59:27.333Z,18.81
2023-05-20T20:01:53.907Z,18.82
2023-05-20T20:04:20.466Z,18.78
2023-05-20T20:06:47.999Z,18.72
2023-05-20T20:09:14.694Z,18.75
2023-05-20T20:11:41.315Z,18.81
2023-05-20T20:14:07.772Z,18.82
2023-05-20T20:16:34.659Z,18.83
2023-05-20T20:19:01.398Z,18.88
2023-05-20T20:21:27.924Z,18.91
2023-05-20T20:23:54.423Z,18.85
2023-05-20T20:26:25.661Z,18.87
2023-05-20T20:28:52.144Z,18.95
2023-05-20T20:31:18.638Z,18.91
2023-05-20T20:33:45.257Z,18.96
2023-05-20T20:36:11.723Z,18.92
2023-05-20T20:38:38.618Z,18.87
2023-05-20T20:41:05.149Z,18.85
2023-05-20T20:43:34.666Z,18.78
2023-05-20T20:46:01.239Z,18.80
2023-05-20T20:48:27.744Z,18.83
2023-05-20T20:50:54.361Z,18.81
2023-05-20T20:53:21.909Z,18.70
2023-05-20T20:55:48.449Z,18.63
2023-05-20T20:58:15.546Z,18.53
2023-05-20T21:00:44.915Z,18.58
2023-05-20T21:03:12.708Z,18.46
2023-05-20T21:05:39.674Z,18.36
2023-05-20T21:08:08.334Z,18.36
2023-05-20T21:10:36.972Z,18.38
2023-05-20T21:13:03.681Z,18.30
2023-05-20T21:15:30.237Z,18.28
2023-05-20T21:17:56.769Z,18.25
2023-05-20T21:20:23.515Z,18.19
2023-05-20T21:22:49.970Z,18.17
2023-05-20T21:25:16.569Z,18.15
2023-05-20T21:27:43.079Z,18.16
2023-05-20T21:30:10.750Z,18.08
2023-05-20T21:32:38.006Z,18.14
2023-05-20T21:35:04.751Z,18.12
2023-05-20T21:37:31.252Z,18.07
2023-05-20T21:39:57.720Z,17.96
2023-05-20T21:42:24.209Z,17.84
2023-05-20T21:44:50.731Z,17.87
2023-05-20T21:47:17.252Z,17.80
2023-05-20T21:49:43.725Z,17.74
2023-05-20T21:52:10.232Z,17.88
2023-05-20T21:54:36.686Z,17.91
2023-05-20T21:57:03.393Z,17.80
2023-05-20T21:59:29.900Z,17.74
2023-05-20T22:01:57.989Z,17.68
2023-05-20T22:04:25.068Z,17.54
2023-05-20T22:06:51.703Z,17.43
2023-05-20T22:09:18.283Z,17.43
2023-05-20T22:11:45.230Z,17.36
2023-05-20T22:14:15.990Z,17.31
2023-05-20T22:16:46.608Z,17.22
2023-05-20T22:19:15.106Z,17.10
2023-05-20T22:24:14.590Z,17.10
2023-05-20T22:26:41.075Z,17.13
2023-05-20T22:29:07.628Z,17.16
2023-05-20T22:31:34.128Z,17.21
2023-05-20T22:34:00.682Z,17.27
2023-05-20T22:36:28.056Z,17.35
2023-05-20T22:38:54.526Z,17.38
2023-05-20T22:41:21.715Z,17.36
2023-05-20T22:43:48.214Z,17.37
2023-05-20T22:46:14.768Z,17.33
2023-05-20T22:48:41.732Z,17.45
2023-05-20T22:51:08.884Z,17.39
2023-05-20T22:53:35.367Z,17.42
2023-05-20T22:56:02.310Z,17.36
2023-05-20T22:58:29.703Z,17.40
2023-05-20T23:00:56.523Z,17.39
2023-05-20T23:03:23.054Z,17.41
2023-05-20T23:05:49.531Z,17.43
2023-05-20T23:08:16.218Z,17.38
2023-05-20T23:10:42.668Z,17.44
2023-05-20T23:13:09.118Z,17.38
2023-05-20T23:15:35.716Z,17.40
2023-05-20T23:18:02.429Z,17.37
2023-05-20T23:20:29.602Z,17.33
2023-05-20T23:22:56.110Z,17.36
2023-05-20T23:25:24.353Z,17.40
2023-05-20T23:27:50.930Z,17.42
2023-05-20T23:30:17.416Z,17.32
2023-05-20T23:32:43.988Z,17.29
2023-05-20T23:35:11.529Z,17.34
2023-05-20T23:37:38.865Z,17.17
2023-05-20T23:40:06.527Z,17.26
2023-05-20T23:42:33.041Z,17.16
2023-05-20T23:44:59.531Z,17.12
2023-05-20T23:47:29.846Z,17.12
2023-05-20T23:49:57.499Z,17.16
2023-05-20T23:52:24.771Z,17.05
2023-05-20T23:54:52.045Z,17.05
2023-05-20T23:57:19.468Z,17.03
2023-05-20T23:59:49.074Z,16.97
